EmailTwitter


Observations de surface / Europe / LIRF (16242)

Régions: Québec | Canada | États-Unis | Europe | France | UK | Ailleurs
Station
Affichage
Infos & localisation pour LIRF (16242) | Aide pour décoder les METARs

Observations prises le 2017-12-12 à 13H50 UTC (LIRF)

Etat du ciel: partiellement nuageux.

Température: 16.0 Celsius

Point de rosée: 14.0 Celsius

Humidité relative: 88%

Vents: Sud-sud-est à 20 km/h ou 11 noeuds.

Pression au niveau moyen de la mer: 101.30 kilopascals.

Visibilité horizontale: 4.35 milles terrestres ou 6.96 kilomètres.

Hauteur du plafond: 914 mètres ( 3000 pieds ).

Observation METAR:

LIRF 121350Z 16011KT 7000 FEW012 SCT018 BKN030 16/14 Q1013 NOSIG=